sensor_id;sensor_type;location;lat;lon;timestamp;pressure;altitude;pressure_sealevel;temperature;humidity
70916;BME280;58557;50.982;-3.222;2023-04-22T00:00:36;100109.34;;;10.40;43.24
70916;BME280;58557;50.982;-3.222;2023-04-22T00:03:02;100106.09;;;9.70;43.42
70916;BME280;58557;50.982;-3.222;2023-04-22T00:05:27;100104.35;;;10.55;42.14
70916;BME280;58557;50.982;-3.222;2023-04-22T00:07:52;100099.83;;;9.58;42.94
70916;BME280;58557;50.982;-3.222;2023-04-22T00:10:18;100099.33;;;9.58;43.41
70916;BME280;58557;50.982;-3.222;2023-04-22T00:12:43;100097.08;;;9.24;43.56
70916;BME280;58557;50.982;-3.222;2023-04-22T00:15:09;100092.19;;;9.51;43.98
70916;BME280;58557;50.982;-3.222;2023-04-22T00:17:34;100093.03;;;9.50;43.21
70916;BME280;58557;50.982;-3.222;2023-04-22T00:20:00;100092.18;;;9.47;43.16
70916;BME280;58557;50.982;-3.222;2023-04-22T00:22:24;100087.71;;;9.28;44.34
70916;BME280;58557;50.982;-3.222;2023-04-22T00:24:50;100085.72;;;9.44;43.80
70916;BME280;58557;50.982;-3.222;2023-04-22T00:27:16;100081.54;;;9.69;43.84
70916;BME280;58557;50.982;-3.222;2023-04-22T00:29:41;100075.15;;;8.58;45.79
70916;BME280;58557;50.982;-3.222;2023-04-22T00:32:06;100079.96;;;7.57;48.19
70916;BME280;58557;50.982;-3.222;2023-04-22T00:34:32;100075.33;;;7.62;48.74
70916;BME280;58557;50.982;-3.222;2023-04-22T00:36:57;100070.87;;;7.37;48.73
70916;BME280;58557;50.982;-3.222;2023-04-22T00:39:23;100064.81;;;7.84;47.81
70916;BME280;58557;50.982;-3.222;2023-04-22T00:41:48;100059.98;;;7.83;48.81
70916;BME280;58557;50.982;-3.222;2023-04-22T00:44:14;100059.15;;;8.38;46.53
70916;BME280;58557;50.982;-3.222;2023-04-22T00:46:38;100053.44;;;7.87;47.55
70916;BME280;58557;50.982;-3.222;2023-04-22T00:49:04;100050.24;;;7.03;49.35
70916;BME280;58557;50.982;-3.222;2023-04-22T00:51:30;100043.58;;;6.61;50.99
70916;BME280;58557;50.982;-3.222;2023-04-22T00:53:55;100043.93;;;6.89;51.03
70916;BME280;58557;50.982;-3.222;2023-04-22T00:56:21;100038.88;;;6.57;51.20
70916;BME280;58557;50.982;-3.222;2023-04-22T00:58:46;100041.07;;;5.48;54.27
70916;BME280;58557;50.982;-3.222;2023-04-22T01:01:12;100040.95;;;7.13;51.52
70916;BME280;58557;50.982;-3.222;2023-04-22T01:03:37;100038.35;;;7.61;50.66
70916;BME280;58557;50.982;-3.222;2023-04-22T01:06:03;100040.28;;;7.91;48.65
70916;BME280;58557;50.982;-3.222;2023-04-22T01:08:28;100035.07;;;8.82;47.53
70916;BME280;58557;50.982;-3.222;2023-04-22T01:10:55;100029.10;;;8.67;47.16
70916;BME280;58557;50.982;-3.222;2023-04-22T01:13:19;100026.53;;;8.32;46.66
70916;BME280;58557;50.982;-3.222;2023-04-22T01:15:45;100028.60;;;8.49;46.47
70916;BME280;58557;50.982;-3.222;2023-04-22T01:18:11;100020.85;;;8.66;46.22
70916;BME280;58557;50.982;-3.222;2023-04-22T01:20:37;100020.20;;;8.68;46.53
70916;BME280;58557;50.982;-3.222;2023-04-22T01:23:02;100019.93;;;8.66;45.96
70916;BME280;58557;50.982;-3.222;2023-04-22T01:25:27;100015.08;;;8.48;46.45
70916;BME280;58557;50.982;-3.222;2023-04-22T01:27:53;100020.80;;;8.00;46.00
70916;BME280;58557;50.982;-3.222;2023-04-22T01:30:18;100016.01;;;8.58;45.72
70916;BME280;58557;50.982;-3.222;2023-04-22T01:32:44;100016.61;;;8.32;45.99
70916;BME280;58557;50.982;-3.222;2023-04-22T01:35:09;100013.20;;;8.99;45.43
70916;BME280;58557;50.982;-3.222;2023-04-22T01:37:34;100013.82;;;8.87;45.75
70916;BME280;58557;50.982;-3.222;2023-04-22T01:39:59;100010.43;;;8.53;45.18
70916;BME280;58557;50.982;-3.222;2023-04-22T01:42:24;100010.15;;;8.72;45.42
70916;BME280;58557;50.982;-3.222;2023-04-22T01:44:49;100009.30;;;8.67;45.20
70916;BME280;58557;50.982;-3.222;2023-04-22T01:47:15;100006.11;;;8.25;45.48
70916;BME280;58557;50.982;-3.222;2023-04-22T01:49:40;100008.35;;;8.30;45.20
70916;BME280;58557;50.982;-3.222;2023-04-22T01:52:06;100009.90;;;8.29;45.33
70916;BME280;58557;50.982;-3.222;2023-04-22T01:54:32;100007.50;;;8.56;45.50
70916;BME280;58557;50.982;-3.222;2023-04-22T01:56:58;100007.59;;;8.35;44.82
70916;BME280;58557;50.982;-3.222;2023-04-22T01:59:23;100006.25;;;7.72;45.19
70916;BME280;58557;50.982;-3.222;2023-04-22T02:01:49;100005.21;;;8.47;45.26
70916;BME280;58557;50.982;-3.222;2023-04-22T02:04:14;100005.08;;;8.28;44.47
70916;BME280;58557;50.982;-3.222;2023-04-22T02:06:39;100001.42;;;8.54;44.76
70916;BME280;58557;50.982;-3.222;2023-04-22T02:09:05;100001.70;;;8.35;44.86
70916;BME280;58557;50.982;-3.222;2023-04-22T02:11:30;99998.68;;;8.39;43.77
70916;BME280;58557;50.982;-3.222;2023-04-22T02:13:55;99998.20;;;9.69;42.54
70916;BME280;58557;50.982;-3.222;2023-04-22T02:16:21;99994.45;;;9.42;43.18
70916;BME280;58557;50.982;-3.222;2023-04-22T02:18:46;99993.93;;;8.64;43.59
70916;BME280;58557;50.982;-3.222;2023-04-22T02:21:12;99995.06;;;8.42;44.88
70916;BME280;58557;50.982;-3.222;2023-04-22T02:23:37;99998.83;;;7.06;46.35
70916;BME280;58557;50.982;-3.222;2023-04-22T02:26:02;99999.09;;;8.06;45.49
70916;BME280;58557;50.982;-3.222;2023-04-22T02:28:27;99998.23;;;7.37;46.81
70916;BME280;58557;50.982;-3.222;2023-04-22T02:30:53;99994.21;;;6.16;48.38
70916;BME280;58557;50.982;-3.222;2023-04-22T02:33:19;99991.53;;;6.79;47.91
70916;BME280;58557;50.982;-3.222;2023-04-22T02:35:44;99990.00;;;7.27;47.15
70916;BME280;58557;50.982;-3.222;2023-04-22T02:38:09;99988.02;;;6.67;48.54
70916;BME280;58557;50.982;-3.222;2023-04-22T02:40:34;99984.21;;;7.19;47.37
70916;BME280;58557;50.982;-3.222;2023-04-22T02:42:59;99983.54;;;8.02;46.49
70916;BME280;58557;50.982;-3.222;2023-04-22T02:45:24;99982.38;;;7.43;45.93
70916;BME280;58557;50.982;-3.222;2023-04-22T02:47:50;99981.44;;;8.25;44.52
70916;BME280;58557;50.982;-3.222;2023-04-22T02:50:16;99982.53;;;8.93;43.92
70916;BME280;58557;50.982;-3.222;2023-04-22T02:52:41;99981.41;;;7.34;46.51
70916;BME280;58557;50.982;-3.222;2023-04-22T02:55:08;99980.81;;;6.90;48.17
70916;BME280;58557;50.982;-3.222;2023-04-22T02:57:32;99969.91;;;8.79;45.59
70916;BME280;58557;50.982;-3.222;2023-04-22T02:59:57;99966.23;;;8.10;45.72
70916;BME280;58557;50.982;-3.222;2023-04-22T03:02:23;99971.86;;;7.51;47.08
70916;BME280;58557;50.982;-3.222;2023-04-22T03:04:48;99971.03;;;5.45;51.61
70916;BME280;58557;50.982;-3.222;2023-04-22T03:07:14;99968.42;;;5.28;53.39
70916;BME280;58557;50.982;-3.222;2023-04-22T03:09:39;99962.75;;;4.35;56.69
70916;BME280;58557;50.982;-3.222;2023-04-22T03:12:05;99958.95;;;7.03;52.07
70916;BME280;58557;50.982;-3.222;2023-04-22T03:14:30;99956.38;;;6.78;50.15
70916;BME280;58557;50.982;-3.222;2023-04-22T03:16:55;99955.93;;;6.49;50.75
70916;BME280;58557;50.982;-3.222;2023-04-22T03:19:20;99954.68;;;6.75;50.51
70916;BME280;58557;50.982;-3.222;2023-04-22T03:21:46;99953.83;;;7.75;48.03
70916;BME280;58557;50.982;-3.222;2023-04-22T03:24:11;99949.19;;;7.49;48.27
70916;BME280;58557;50.982;-3.222;2023-04-22T03:26:37;99946.51;;;7.50;48.91
70916;BME280;58557;50.982;-3.222;2023-04-22T03:29:02;99940.11;;;7.61;48.74
70916;BME280;58557;50.982;-3.222;2023-04-22T03:31:27;99935.09;;;7.05;49.16
70916;BME280;58557;50.982;-3.222;2023-04-22T03:33:52;99930.15;;;7.68;48.44
70916;BME280;58557;50.982;-3.222;2023-04-22T03:36:17;99918.41;;;7.67;48.58
70916;BME280;58557;50.982;-3.222;2023-04-22T03:38:44;99919.54;;;7.30;48.04
70916;BME280;58557;50.982;-3.222;2023-04-22T03:41:09;99913.54;;;7.61;48.12
70916;BME280;58557;50.982;-3.222;2023-04-22T03:43:34;99916.26;;;8.07;47.25
70916;BME280;58557;50.982;-3.222;2023-04-22T03:45:59;99916.52;;;7.69;46.15
70916;BME280;58557;50.982;-3.222;2023-04-22T03:48:24;99914.75;;;7.58;47.88
70916;BME280;58557;50.982;-3.222;2023-04-22T03:50:49;99918.06;;;7.73;47.27
70916;BME280;58557;50.982;-3.222;2023-04-22T03:53:14;99917.14;;;6.92;48.73
70916;BME280;58557;50.982;-3.222;2023-04-22T03:55:40;99913.79;;;7.66;47.26
70916;BME280;58557;50.982;-3.222;2023-04-22T03:58:05;99921.09;;;6.69;49.89
70916;BME280;58557;50.982;-3.222;2023-04-22T04:00:31;99917.09;;;5.74;51.39
70916;BME280;58557;50.982;-3.222;2023-04-22T04:02:56;99914.22;;;5.29;55.02
70916;BME280;58557;50.982;-3.222;2023-04-22T04:05:21;99915.51;;;6.82;51.98
70916;BME280;58557;50.982;-3.222;2023-04-22T04:07:46;99917.87;;;6.71;50.80
70916;BME280;58557;50.982;-3.222;2023-04-22T04:10:11;99915.79;;;7.19;49.76
70916;BME280;58557;50.982;-3.222;2023-04-22T04:12:37;99909.75;;;8.29;46.88
70916;BME280;58557;50.982;-3.222;2023-04-22T04:15:03;99903.81;;;7.90;47.21
70916;BME280;58557;50.982;-3.222;2023-04-22T04:17:28;99901.72;;;7.99;47.44
70916;BME280;58557;50.982;-3.222;2023-04-22T04:19:54;99898.39;;;7.88;47.41
70916;BME280;58557;50.982;-3.222;2023-04-22T04:22:19;99898.37;;;8.43;45.33
70916;BME280;58557;50.982;-3.222;2023-04-22T04:24:45;99897.81;;;8.04;45.95
70916;BME280;58557;50.982;-3.222;2023-04-22T04:27:11;99895.64;;;8.35;46.49
70916;BME280;58557;50.982;-3.222;2023-04-22T04:29:36;99893.83;;;7.76;45.74
70916;BME280;58557;50.982;-3.222;2023-04-22T04:32:02;99891.29;;;8.12;45.77
70916;BME280;58557;50.982;-3.222;2023-04-22T04:34:27;99891.01;;;8.06;45.71
70916;BME280;58557;50.982;-3.222;2023-04-22T04:36:53;99892.45;;;8.52;45.77
70916;BME280;58557;50.982;-3.222;2023-04-22T04:39:18;99890.68;;;8.33;45.72
70916;BME280;58557;50.982;-3.222;2023-04-22T04:41:44;99889.50;;;9.47;44.19
70916;BME280;58557;50.982;-3.222;2023-04-22T04:44:09;99892.13;;;8.71;45.10
70916;BME280;58557;50.982;-3.222;2023-04-22T04:46:35;99889.49;;;8.47;45.49
70916;BME280;58557;50.982;-3.222;2023-04-22T04:49:01;99884.40;;;8.91;44.37
70916;BME280;58557;50.982;-3.222;2023-04-22T04:51:26;99883.05;;;8.76;45.30
70916;BME280;58557;50.982;-3.222;2023-04-22T04:53:51;99882.53;;;9.72;44.12
70916;BME280;58557;50.982;-3.222;2023-04-22T04:56:17;99879.35;;;9.97;43.29
70916;BME280;58557;50.982;-3.222;2023-04-22T04:58:43;99878.47;;;9.06;44.39
70916;BME280;58557;50.982;-3.222;2023-04-22T05:01:08;99874.46;;;8.99;45.17
70916;BME280;58557;50.982;-3.222;2023-04-22T05:03:34;99868.47;;;9.27;45.21
70916;BME280;58557;50.982;-3.222;2023-04-22T05:06:00;99867.59;;;10.24;42.52
70916;BME280;58557;50.982;-3.222;2023-04-22T05:08:25;99863.84;;;9.14;44.22
70916;BME280;58557;50.982;-3.222;2023-04-22T05:10:51;99862.62;;;8.30;45.58
70916;BME280;58557;50.982;-3.222;2023-04-22T05:13:17;99865.74;;;8.66;45.68
70916;BME280;58557;50.982;-3.222;2023-04-22T05:15:42;99860.31;;;8.16;45.37
70916;BME280;58557;50.982;-3.222;2023-04-22T05:18:08;99860.72;;;8.21;46.53
70916;BME280;58557;50.982;-3.222;2023-04-22T05:20:34;99856.93;;;9.32;45.83
70916;BME280;58557;50.982;-3.222;2023-04-22T05:22:59;99847.80;;;10.08;43.79
70916;BME280;58557;50.982;-3.222;2023-04-22T05:25:24;99847.96;;;9.28;44.65
70916;BME280;58557;50.982;-3.222;2023-04-22T05:27:50;99845.11;;;9.78;42.97
70916;BME280;58557;50.982;-3.222;2023-04-22T05:30:15;99847.46;;;9.22;43.61
70916;BME280;58557;50.982;-3.222;2023-04-22T05:32:40;99842.24;;;9.66;43.49
70916;BME280;58557;50.982;-3.222;2023-04-22T05:35:07;99841.78;;;9.23;42.64
70916;BME280;58557;50.982;-3.222;2023-04-22T05:37:31;99841.80;;;9.83;42.65
70916;BME280;58557;50.982;-3.222;2023-04-22T05:39:56;99839.14;;;9.47;41.91
70916;BME280;58557;50.982;-3.222;2023-04-22T05:42:22;99842.79;;;9.22;42.87
70916;BME280;58557;50.982;-3.222;2023-04-22T05:44:48;99845.67;;;9.75;42.50
70916;BME280;58557;50.982;-3.222;2023-04-22T05:47:13;99846.12;;;9.25;42.86
70916;BME280;58557;50.982;-3.222;2023-04-22T05:49:39;99847.35;;;8.96;43.61
70916;BME280;58557;50.982;-3.222;2023-04-22T05:52:04;99849.59;;;10.43;40.91
70916;BME280;58557;50.982;-3.222;2023-04-22T05:54:29;99847.43;;;9.93;41.36
70916;BME280;58557;50.982;-3.222;2023-04-22T05:56:55;99844.41;;;9.16;43.52
70916;BME280;58557;50.982;-3.222;2023-04-22T05:59:20;99840.16;;;8.33;45.93
70916;BME280;58557;50.982;-3.222;2023-04-22T06:01:45;99837.81;;;7.37;47.16
70916;BME280;58557;50.982;-3.222;2023-04-22T06:04:10;99840.47;;;6.73;49.74
70916;BME280;58557;50.982;-3.222;2023-04-22T06:06:36;99839.42;;;6.43;50.28
70916;BME280;58557;50.982;-3.222;2023-04-22T06:09:02;99838.27;;;7.59;48.42
70916;BME280;58557;50.982;-3.222;2023-04-22T06:11:27;99839.13;;;7.62;49.33
70916;BME280;58557;50.982;-3.222;2023-04-22T06:13:52;99840.82;;;7.14;49.00
70916;BME280;58557;50.982;-3.222;2023-04-22T06:16:18;99838.38;;;8.71;45.93
70916;BME280;58557;50.982;-3.222;2023-04-22T06:18:43;99835.56;;;9.12;45.49
70916;BME280;58557;50.982;-3.222;2023-04-22T06:21:09;99834.66;;;9.36;44.42
70916;BME280;58557;50.982;-3.222;2023-04-22T06:23:34;99834.57;;;9.72;43.98
70916;BME280;58557;50.982;-3.222;2023-04-22T06:26:00;99834.12;;;9.85;43.48
70916;BME280;58557;50.982;-3.222;2023-04-22T06:28:25;99831.32;;;9.50;42.69
70916;BME280;58557;50.982;-3.222;2023-04-22T06:30:51;99831.16;;;9.90;43.51
70916;BME280;58557;50.982;-3.222;2023-04-22T06:33:16;99825.48;;;9.65;43.83
70916;BME280;58557;50.982;-3.222;2023-04-22T06:35:41;99829.98;;;10.37;42.95
70916;BME280;58557;50.982;-3.222;2023-04-22T06:38:07;99834.35;;;10.52;42.38
70916;BME280;58557;50.982;-3.222;2023-04-22T06:40:32;99839.61;;;10.33;42.50
70916;BME280;58557;50.982;-3.222;2023-04-22T06:42:58;99844.03;;;10.14;43.52
70916;BME280;58557;50.982;-3.222;2023-04-22T06:45:24;99849.55;;;7.48;51.28
70916;BME280;58557;50.982;-3.222;2023-04-22T06:47:51;99855.22;;;7.15;54.06
70916;BME280;58557;50.982;-3.222;2023-04-22T06:50:14;99861.91;;;5.73;56.75
70916;BME280;58557;50.982;-3.222;2023-04-22T06:52:39;99858.33;;;5.23;57.68
70916;BME280;58557;50.982;-3.222;2023-04-22T06:55:05;99859.68;;;5.60;58.30
70916;BME280;58557;50.982;-3.222;2023-04-22T06:57:30;99859.55;;;7.04;56.18
70916;BME280;58557;50.982;-3.222;2023-04-22T06:59:56;99856.23;;;7.79;54.07
70916;BME280;58557;50.982;-3.222;2023-04-22T07:02:22;99854.36;;;6.91;54.61
70916;BME280;58557;50.982;-3.222;2023-04-22T07:04:47;99860.56;;;6.18;56.80
70916;BME280;58557;50.982;-3.222;2023-04-22T07:07:13;99852.90;;;9.66;50.48
70916;BME280;58557;50.982;-3.222;2023-04-22T07:09:38;99852.58;;;10.17;50.39
70916;BME280;58557;50.982;-3.222;2023-04-22T07:12:04;99856.71;;;10.93;49.18
70916;BME280;58557;50.982;-3.222;2023-04-22T07:14:28;99857.06;;;10.93;46.80
70916;BME280;58557;50.982;-3.222;2023-04-22T07:16:53;99851.25;;;12.38;44.78
70916;BME280;58557;50.982;-3.222;2023-04-22T07:19:20;99850.16;;;12.39;43.26
70916;BME280;58557;50.982;-3.222;2023-04-22T07:21:45;99848.83;;;12.23;42.50
70916;BME280;58557;50.982;-3.222;2023-04-22T07:24:10;99846.59;;;12.16;41.91
70916;BME280;58557;50.982;-3.222;2023-04-22T07:26:36;99849.38;;;12.78;42.13
70916;BME280;58557;50.982;-3.222;2023-04-22T07:29:01;99850.44;;;12.46;41.89
70916;BME280;58557;50.982;-3.222;2023-04-22T07:31:26;99850.76;;;12.53;41.85
70916;BME280;58557;50.982;-3.222;2023-04-22T07:33:51;99849.96;;;13.65;39.70
70916;BME280;58557;50.982;-3.222;2023-04-22T07:36:17;99847.06;;;12.37;40.80
70916;BME280;58557;50.982;-3.222;2023-04-22T07:38:42;99847.07;;;12.72;42.96
70916;BME280;58557;50.982;-3.222;2023-04-22T07:41:07;99844.44;;;12.93;41.10
70916;BME280;58557;50.982;-3.222;2023-04-22T07:43:33;99844.63;;;12.50;42.09
70916;BME280;58557;50.982;-3.222;2023-04-22T07:45:58;99849.00;;;11.71;44.22
70916;BME280;58557;50.982;-3.222;2023-04-22T07:48:24;99849.64;;;10.76;46.74
70916;BME280;58557;50.982;-3.222;2023-04-22T07:50:50;99842.03;;;9.87;49.93
70916;BME280;58557;50.982;-3.222;2023-04-22T07:53:15;99843.21;;;10.12;50.76
70916;BME280;58557;50.982;-3.222;2023-04-22T07:55:40;99845.94;;;9.79;50.75
70916;BME280;58557;50.982;-3.222;2023-04-22T07:58:06;99848.06;;;8.91;53.86
70916;BME280;58557;50.982;-3.222;2023-04-22T08:00:32;99842.87;;;9.42;53.66
70916;BME280;58557;50.982;-3.222;2023-04-22T08:02:56;99838.91;;;10.04;53.25
70916;BME280;58557;50.982;-3.222;2023-04-22T08:05:22;99838.22;;;10.49;52.16
70916;BME280;58557;50.982;-3.222;2023-04-22T08:07:47;99839.50;;;11.04;49.92
70916;BME280;58557;50.982;-3.222;2023-04-22T08:10:13;99833.46;;;11.20;48.98
70916;BME280;58557;50.982;-3.222;2023-04-22T08:12:38;99828.00;;;11.96;47.57
70916;BME280;58557;50.982;-3.222;2023-04-22T08:15:04;99828.35;;;11.65;48.66
70916;BME280;58557;50.982;-3.222;2023-04-22T08:17:29;99825.95;;;11.59;48.34
70916;BME280;58557;50.982;-3.222;2023-04-22T08:20:06;99821.33;;;11.08;47.92
70916;BME280;58557;50.982;-3.222;2023-04-22T08:22:29;99816.76;;;11.94;47.62
70916;BME280;58557;50.982;-3.222;2023-04-22T08:24:55;99813.50;;;10.08;52.12
70916;BME280;58557;50.982;-3.222;2023-04-22T08:27:21;99809.05;;;10.33;52.91
70916;BME280;58557;50.982;-3.222;2023-04-22T08:29:45;99810.04;;;10.31;51.53
70916;BME280;58557;50.982;-3.222;2023-04-22T08:32:11;99805.02;;;11.56;50.24
70916;BME280;58557;50.982;-3.222;2023-04-22T08:34:37;99801.00;;;11.26;49.82
70916;BME280;58557;50.982;-3.222;2023-04-22T08:37:03;99798.93;;;12.15;47.70
70916;BME280;58557;50.982;-3.222;2023-04-22T08:39:28;99801.18;;;12.21;48.03
70916;BME280;58557;50.982;-3.222;2023-04-22T08:41:54;99803.85;;;12.34;46.36
70916;BME280;58557;50.982;-3.222;2023-04-22T08:44:19;99800.70;;;12.61;45.87
70916;BME280;58557;50.982;-3.222;2023-04-22T08:46:44;99802.67;;;12.51;45.92
70916;BME280;58557;50.982;-3.222;2023-04-22T08:49:10;99802.62;;;12.28;45.55
70916;BME280;58557;50.982;-3.222;2023-04-22T08:51:35;99801.16;;;12.87;44.33
70916;BME280;58557;50.982;-3.222;2023-04-22T08:54:00;99794.13;;;13.25;43.34
70916;BME280;58557;50.982;-3.222;2023-04-22T08:56:25;99793.68;;;13.05;44.27
70916;BME280;58557;50.982;-3.222;2023-04-22T08:58:51;99794.18;;;12.60;44.48
70916;BME280;58557;50.982;-3.222;2023-04-22T09:01:15;99795.98;;;11.43;47.81
70916;BME280;58557;50.982;-3.222;2023-04-22T09:03:41;99793.85;;;12.05;47.26
70916;BME280;58557;50.982;-3.222;2023-04-22T09:06:07;99790.69;;;12.35;47.01
70916;BME280;58557;50.982;-3.222;2023-04-22T09:08:32;99791.34;;;12.01;47.83
70916;BME280;58557;50.982;-3.222;2023-04-22T09:10:58;99787.83;;;12.65;46.76
70916;BME280;58557;50.982;-3.222;2023-04-22T09:13:24;99788.98;;;13.86;44.88
70916;BME280;58557;50.982;-3.222;2023-04-22T09:15:48;99789.38;;;13.04;45.35
70916;BME280;58557;50.982;-3.222;2023-04-22T09:18:16;99790.11;;;12.43;46.47
70916;BME280;58557;50.982;-3.222;2023-04-22T09:20:41;99789.78;;;12.48;47.52
70916;BME280;58557;50.982;-3.222;2023-04-22T09:23:04;99786.41;;;12.56;47.69
70916;BME280;58557;50.982;-3.222;2023-04-22T09:25:32;99784.31;;;12.97;47.29
70916;BME280;58557;50.982;-3.222;2023-04-22T09:27:56;99778.84;;;12.33;48.41
70916;BME280;58557;50.982;-3.222;2023-04-22T09:30:23;99782.61;;;11.28;50.78
70916;BME280;58557;50.982;-3.222;2023-04-22T09:32:52;99785.80;;;10.52;52.40
70916;BME280;58557;50.982;-3.222;2023-04-22T09:35:11;99784.18;;;10.56;53.36
70916;BME280;58557;50.982;-3.222;2023-04-22T09:37:36;99787.02;;;10.45;53.55
70916;BME280;58557;50.982;-3.222;2023-04-22T09:40:01;99788.40;;;11.16;52.50
70916;BME280;58557;50.982;-3.222;2023-04-22T09:42:26;99788.35;;;11.51;51.69
70916;BME280;58557;50.982;-3.222;2023-04-22T09:44:52;99789.85;;;11.86;52.15
70916;BME280;58557;50.982;-3.222;2023-04-22T09:47:18;99786.06;;;10.55;55.54
70916;BME280;58557;50.982;-3.222;2023-04-22T09:49:45;99784.65;;;11.99;54.70
70916;BME280;58557;50.982;-3.222;2023-04-22T09:52:08;99777.30;;;12.35;50.89
70916;BME280;58557;50.982;-3.222;2023-04-22T09:54:36;99775.55;;;12.97;48.92
70916;BME280;58557;50.982;-3.222;2023-04-22T09:56:59;99778.07;;;14.58;46.77
70916;BME280;58557;50.982;-3.222;2023-04-22T09:59:26;99775.66;;;13.97;45.00
70916;BME280;58557;50.982;-3.222;2023-04-22T10:01:54;99774.91;;;13.83;47.24
70916;BME280;58557;50.982;-3.222;2023-04-22T10:04:16;99772.57;;;14.13;45.05
70916;BME280;58557;50.982;-3.222;2023-04-22T10:06:42;99773.68;;;14.54;44.51
70916;BME280;58557;50.982;-3.222;2023-04-22T10:09:07;99778.27;;;15.09;43.33
70916;BME280;58557;50.982;-3.222;2023-04-22T10:11:33;99772.84;;;14.79;44.05
70916;BME280;58557;50.982;-3.222;2023-04-22T10:13:58;99771.45;;;14.83;44.44
70916;BME280;58557;50.982;-3.222;2023-04-22T10:16:24;99768.61;;;14.41;45.48
70916;BME280;58557;50.982;-3.222;2023-04-22T10:18:50;99768.52;;;13.74;47.95
70916;BME280;58557;50.982;-3.222;2023-04-22T10:21:16;99769.46;;;13.66;48.25
70916;BME280;58557;50.982;-3.222;2023-04-22T10:23:45;99760.23;;;14.04;47.03
70916;BME280;58557;50.982;-3.222;2023-04-22T10:26:05;99764.01;;;14.86;45.79
70916;BME280;58557;50.982;-3.222;2023-04-22T10:28:31;99762.89;;;15.25;43.75
70916;BME280;58557;50.982;-3.222;2023-04-22T10:30:56;99756.20;;;15.31;42.90
70916;BME280;58557;50.982;-3.222;2023-04-22T10:33:35;99750.15;;;15.86;42.30
70916;BME280;58557;50.982;-3.222;2023-04-22T10:38:13;99754.74;;;14.47;44.98
70916;BME280;58557;50.982;-3.222;2023-04-22T10:43:04;99751.20;;;13.98;46.09
70916;BME280;58557;50.982;-3.222;2023-04-22T10:45:31;99755.94;;;13.73;46.59
70916;BME280;58557;50.982;-3.222;2023-04-22T10:47:54;99755.16;;;14.75;45.30
70916;BME280;58557;50.982;-3.222;2023-04-22T10:50:22;99752.13;;;14.32;45.33
70916;BME280;58557;50.982;-3.222;2023-04-22T10:52:47;99747.09;;;13.62;46.04
70916;BME280;58557;50.982;-3.222;2023-04-22T10:55:11;99743.61;;;13.85;45.38
70916;BME280;58557;50.982;-3.222;2023-04-22T10:57:38;99739.20;;;13.62;45.71
70916;BME280;58557;50.982;-3.222;2023-04-22T11:02:27;99743.70;;;13.35;46.49
70916;BME280;58557;50.982;-3.222;2023-04-22T11:07:29;99741.88;;;13.08;46.60
70916;BME280;58557;50.982;-3.222;2023-04-22T11:09:47;99742.43;;;13.50;45.87
70916;BME280;58557;50.982;-3.222;2023-04-22T11:14:34;99744.67;;;12.25;50.62
70916;BME280;58557;50.982;-3.222;2023-04-22T11:17:00;99744.11;;;13.00;49.93
70916;BME280;58557;50.982;-3.222;2023-04-22T11:19:26;99744.93;;;12.78;49.24
70916;BME280;58557;50.982;-3.222;2023-04-22T11:21:52;99745.55;;;13.31;47.14
70916;BME280;58557;50.982;-3.222;2023-04-22T11:24:17;99742.89;;;13.21;45.60
70916;BME280;58557;50.982;-3.222;2023-04-22T11:26:42;99746.13;;;12.77;46.47
70916;BME280;58557;50.982;-3.222;2023-04-22T11:29:08;99741.65;;;13.70;44.79
70916;BME280;58557;50.982;-3.222;2023-04-22T11:31:34;99743.79;;;15.12;42.65
70916;BME280;58557;50.982;-3.222;2023-04-22T11:33:58;99746.78;;;14.78;42.97
70916;BME280;58557;50.982;-3.222;2023-04-22T11:36:23;99743.10;;;14.47;42.35
70916;BME280;58557;50.982;-3.222;2023-04-22T11:38:53;99740.05;;;15.08;41.14
70916;BME280;58557;50.982;-3.222;2023-04-22T11:41:19;99737.82;;;15.29;40.32
70916;BME280;58557;50.982;-3.222;2023-04-22T11:43:45;99730.63;;;15.38;39.10
70916;BME280;58557;50.982;-3.222;2023-04-22T11:46:05;99731.86;;;15.44;39.29
70916;BME280;58557;50.982;-3.222;2023-04-22T11:48:31;99730.01;;;15.08;39.57
70916;BME280;58557;50.982;-3.222;2023-04-22T11:51:06;99729.89;;;15.12;39.47
70916;BME280;58557;50.982;-3.222;2023-04-22T11:53:22;99729.24;;;15.20;39.74
70916;BME280;58557;50.982;-3.222;2023-04-22T11:55:54;99728.32;;;14.47;40.67
70916;BME280;58557;50.982;-3.222;2023-04-22T11:58:14;99723.41;;;15.28;40.99
70916;BME280;58557;50.982;-3.222;2023-04-22T12:00:40;99721.43;;;15.39;39.71
70916;BME280;58557;50.982;-3.222;2023-04-22T12:03:07;99720.18;;;15.42;38.85
70916;BME280;58557;50.982;-3.222;2023-04-22T12:05:34;99722.71;;;15.19;39.48
70916;BME280;58557;50.982;-3.222;2023-04-22T12:07:54;99726.30;;;14.16;41.70
70916;BME280;58557;50.982;-3.222;2023-04-22T12:10:22;99719.37;;;14.13;41.91
70916;BME280;58557;50.982;-3.222;2023-04-22T12:12:45;99723.49;;;15.26;40.98
70916;BME280;58557;50.982;-3.222;2023-04-22T12:15:11;99725.92;;;15.35;39.68
70916;BME280;58557;50.982;-3.222;2023-04-22T12:17:37;99726.14;;;14.60;40.04
70916;BME280;58557;50.982;-3.222;2023-04-22T12:20:03;99723.61;;;13.92;41.44
70916;BME280;58557;50.982;-3.222;2023-04-22T12:22:29;99718.90;;;13.56;42.19
70916;BME280;58557;50.982;-3.222;2023-04-22T12:24:53;99720.67;;;14.30;42.26
70916;BME280;58557;50.982;-3.222;2023-04-22T12:27:19;99720.10;;;13.09;44.46
70916;BME280;58557;50.982;-3.222;2023-04-22T12:29:50;99720.04;;;13.32;44.45
70916;BME280;58557;50.982;-3.222;2023-04-22T12:32:10;99719.03;;;13.43;44.30
70916;BME280;58557;50.982;-3.222;2023-04-22T12:34:36;99715.44;;;13.98;43.42
70916;BME280;58557;50.982;-3.222;2023-04-22T12:37:01;99715.98;;;14.33;42.97
70916;BME280;58557;50.982;-3.222;2023-04-22T12:39:27;99715.54;;;15.17;41.11
70916;BME280;58557;50.982;-3.222;2023-04-22T12:41:52;99712.42;;;14.67;41.37
70916;BME280;58557;50.982;-3.222;2023-04-22T12:44:18;99710.07;;;15.56;39.61
70916;BME280;58557;50.982;-3.222;2023-04-22T12:46:44;99712.16;;;14.54;40.95
70916;BME280;58557;50.982;-3.222;2023-04-22T12:49:09;99711.45;;;14.71;40.18
70916;BME280;58557;50.982;-3.222;2023-04-22T12:51:34;99707.26;;;14.62;40.29
70916;BME280;58557;50.982;-3.222;2023-04-22T12:54:00;99706.20;;;13.82;41.95